sensor_id;sensor_type;location;lat;lon;timestamp;P1;durP1;ratioP1;P2;durP2;ratioP2
1446;SDS011;717;51.522;7.266;2022-12-11T00:01:17;32.30;;;13.60;;
1446;SDS011;717;51.522;7.266;2022-12-11T00:03:47;32.77;;;14.57;;
1446;SDS011;717;51.522;7.266;2022-12-11T00:06:19;28.17;;;12.77;;
1446;SDS011;717;51.522;7.266;2022-12-11T00:08:49;26.27;;;12.40;;
1446;SDS011;717;51.522;7.266;2022-12-11T00:11:19;30.60;;;12.43;;
1446;SDS011;717;51.522;7.266;2022-12-11T00:13:49;31.87;;;13.43;;
1446;SDS011;717;51.522;7.266;2022-12-11T00:16:18;25.43;;;12.50;;
1446;SDS011;717;51.522;7.266;2022-12-11T00:18:46;27.67;;;12.23;;
1446;SDS011;717;51.522;7.266;2022-12-11T00:21:17;32.83;;;14.50;;
1446;SDS011;717;51.522;7.266;2022-12-11T00:23:46;31.97;;;12.93;;
1446;SDS011;717;51.522;7.266;2022-12-11T00:26:15;27.90;;;13.13;;
1446;SDS011;717;51.522;7.266;2022-12-11T00:28:43;31.73;;;13.27;;
1446;SDS011;717;51.522;7.266;2022-12-11T00:31:13;27.40;;;12.17;;
1446;SDS011;717;51.522;7.266;2022-12-11T00:33:44;34.03;;;15.60;;
1446;SDS011;717;51.522;7.266;2022-12-11T00:36:14;28.03;;;13.73;;
1446;SDS011;717;51.522;7.266;2022-12-11T00:38:48;29.83;;;13.73;;
1446;SDS011;717;51.522;7.266;2022-12-11T00:41:17;35.50;;;16.40;;
1446;SDS011;717;51.522;7.266;2022-12-11T00:43:45;37.27;;;16.10;;
1446;SDS011;717;51.522;7.266;2022-12-11T00:46:14;35.23;;;17.07;;
1446;SDS011;717;51.522;7.266;2022-12-11T00:48:43;35.10;;;14.87;;
1446;SDS011;717;51.522;7.266;2022-12-11T00:51:13;32.80;;;14.10;;
1446;SDS011;717;51.522;7.266;2022-12-11T00:53:45;34.47;;;15.10;;
1446;SDS011;717;51.522;7.266;2022-12-11T00:56:14;33.87;;;15.00;;
1446;SDS011;717;51.522;7.266;2022-12-11T00:58:44;37.47;;;16.77;;
1446;SDS011;717;51.522;7.266;2022-12-11T01:01:14;34.30;;;14.90;;
1446;SDS011;717;51.522;7.266;2022-12-11T01:03:43;32.73;;;14.40;;
1446;SDS011;717;51.522;7.266;2022-12-11T01:06:12;36.67;;;15.80;;
1446;SDS011;717;51.522;7.266;2022-12-11T01:08:45;32.30;;;14.50;;
1446;SDS011;717;51.522;7.266;2022-12-11T01:11:34;33.47;;;14.27;;
1446;SDS011;717;51.522;7.266;2022-12-11T01:14:00;34.30;;;13.97;;
1446;SDS011;717;51.522;7.266;2022-12-11T01:16:29;33.23;;;14.77;;
1446;SDS011;717;51.522;7.266;2022-12-11T01:18:58;32.40;;;13.30;;
1446;SDS011;717;51.522;7.266;2022-12-11T01:21:27;34.53;;;14.13;;
1446;SDS011;717;51.522;7.266;2022-12-11T01:23:59;34.93;;;15.43;;
1446;SDS011;717;51.522;7.266;2022-12-11T01:26:27;35.17;;;15.10;;
1446;SDS011;717;51.522;7.266;2022-12-11T01:28:56;39.70;;;15.70;;
1446;SDS011;717;51.522;7.266;2022-12-11T01:31:25;37.90;;;15.50;;
1446;SDS011;717;51.522;7.266;2022-12-11T01:33:54;36.30;;;15.70;;
1446;SDS011;717;51.522;7.266;2022-12-11T01:36:23;38.37;;;15.20;;
1446;SDS011;717;51.522;7.266;2022-12-11T01:38:51;33.90;;;14.57;;
1446;SDS011;717;51.522;7.266;2022-12-11T01:41:22;39.70;;;16.33;;
1446;SDS011;717;51.522;7.266;2022-12-11T01:43:55;39.70;;;16.20;;
1446;SDS011;717;51.522;7.266;2022-12-11T01:46:24;39.20;;;13.63;;
1446;SDS011;717;51.522;7.266;2022-12-11T01:48:54;39.73;;;15.47;;
1446;SDS011;717;51.522;7.266;2022-12-11T01:51:23;39.23;;;16.50;;
1446;SDS011;717;51.522;7.266;2022-12-11T01:53:53;41.00;;;15.60;;
1446;SDS011;717;51.522;7.266;2022-12-11T01:56:28;37.90;;;15.63;;
1446;SDS011;717;51.522;7.266;2022-12-11T01:59:00;41.40;;;15.33;;
1446;SDS011;717;51.522;7.266;2022-12-11T02:01:32;45.90;;;16.40;;
1446;SDS011;717;51.522;7.266;2022-12-11T02:04:04;38.80;;;16.00;;
1446;SDS011;717;51.522;7.266;2022-12-11T02:06:36;42.03;;;16.17;;
1446;SDS011;717;51.522;7.266;2022-12-11T02:09:08;46.00;;;16.87;;
1446;SDS011;717;51.522;7.266;2022-12-11T02:11:44;38.87;;;14.93;;
1446;SDS011;717;51.522;7.266;2022-12-11T02:14:23;42.33;;;15.13;;
1446;SDS011;717;51.522;7.266;2022-12-11T02:16:59;35.97;;;13.77;;
1446;SDS011;717;51.522;7.266;2022-12-11T02:22:21;41.27;;;15.20;;
1446;SDS011;717;51.522;7.266;2022-12-11T02:25:03;40.87;;;16.53;;
1446;SDS011;717;51.522;7.266;2022-12-11T02:27:43;42.17;;;16.63;;
1446;SDS011;717;51.522;7.266;2022-12-11T02:30:16;36.97;;;14.93;;
1446;SDS011;717;51.522;7.266;2022-12-11T02:32:46;48.40;;;17.53;;
1446;SDS011;717;51.522;7.266;2022-12-11T02:35:21;43.70;;;17.30;;
1446;SDS011;717;51.522;7.266;2022-12-11T02:37:53;42.43;;;14.87;;
1446;SDS011;717;51.522;7.266;2022-12-11T02:40:25;46.67;;;17.77;;
1446;SDS011;717;51.522;7.266;2022-12-11T02:42:58;43.93;;;16.73;;
1446;SDS011;717;51.522;7.266;2022-12-11T02:45:33;44.13;;;16.10;;
1446;SDS011;717;51.522;7.266;2022-12-11T02:48:04;50.27;;;17.47;;
1446;SDS011;717;51.522;7.266;2022-12-11T02:50:35;46.30;;;19.17;;
1446;SDS011;717;51.522;7.266;2022-12-11T02:53:06;41.20;;;16.57;;
1446;SDS011;717;51.522;7.266;2022-12-11T02:55:37;39.77;;;15.30;;
1446;SDS011;717;51.522;7.266;2022-12-11T02:58:11;46.17;;;18.80;;
1446;SDS011;717;51.522;7.266;2022-12-11T03:00:46;42.30;;;16.73;;
1446;SDS011;717;51.522;7.266;2022-12-11T03:03:15;45.20;;;16.50;;
1446;SDS011;717;51.522;7.266;2022-12-11T03:05:43;50.60;;;18.67;;
1446;SDS011;717;51.522;7.266;2022-12-11T03:08:12;49.67;;;19.33;;
1446;SDS011;717;51.522;7.266;2022-12-11T03:10:42;41.23;;;16.70;;
1446;SDS011;717;51.522;7.266;2022-12-11T03:13:12;40.23;;;17.53;;
1446;SDS011;717;51.522;7.266;2022-12-11T03:15:51;41.60;;;16.90;;
1446;SDS011;717;51.522;7.266;2022-12-11T03:18:29;45.10;;;16.97;;
1446;SDS011;717;51.522;7.266;2022-12-11T03:21:04;46.03;;;16.80;;
1446;SDS011;717;51.522;7.266;2022-12-11T03:23:36;38.80;;;18.10;;
1446;SDS011;717;51.522;7.266;2022-12-11T03:26:12;41.50;;;15.47;;
1446;SDS011;717;51.522;7.266;2022-12-11T03:28:43;36.70;;;16.23;;
1446;SDS011;717;51.522;7.266;2022-12-11T03:31:19;39.33;;;16.10;;
1446;SDS011;717;51.522;7.266;2022-12-11T03:33:53;35.53;;;14.70;;
1446;SDS011;717;51.522;7.266;2022-12-11T03:36:26;38.77;;;15.43;;
1446;SDS011;717;51.522;7.266;2022-12-11T03:39:00;33.50;;;14.13;;
1446;SDS011;717;51.522;7.266;2022-12-11T03:41:32;34.10;;;14.63;;
1446;SDS011;717;51.522;7.266;2022-12-11T03:44:04;31.03;;;14.40;;
1446;SDS011;717;51.522;7.266;2022-12-11T03:46:36;34.93;;;14.77;;
1446;SDS011;717;51.522;7.266;2022-12-11T03:49:08;32.60;;;13.73;;
1446;SDS011;717;51.522;7.266;2022-12-11T03:51:42;29.70;;;13.63;;
1446;SDS011;717;51.522;7.266;2022-12-11T03:54:13;26.07;;;13.17;;
1446;SDS011;717;51.522;7.266;2022-12-11T03:56:43;30.43;;;12.50;;
1446;SDS011;717;51.522;7.266;2022-12-11T03:59:13;27.27;;;13.10;;
1446;SDS011;717;51.522;7.266;2022-12-11T04:01:44;24.53;;;11.80;;
1446;SDS011;717;51.522;7.266;2022-12-11T04:04:13;30.77;;;14.53;;
1446;SDS011;717;51.522;7.266;2022-12-11T04:06:42;28.27;;;12.57;;
1446;SDS011;717;51.522;7.266;2022-12-11T04:09:10;29.77;;;14.20;;
1446;SDS011;717;51.522;7.266;2022-12-11T04:11:39;36.10;;;15.53;;
1446;SDS011;717;51.522;7.266;2022-12-11T04:14:08;30.60;;;13.77;;
1446;SDS011;717;51.522;7.266;2022-12-11T04:16:54;33.47;;;13.87;;
1446;SDS011;717;51.522;7.266;2022-12-11T04:19:23;34.07;;;14.20;;
1446;SDS011;717;51.522;7.266;2022-12-11T04:22:05;33.27;;;14.13;;
1446;SDS011;717;51.522;7.266;2022-12-11T04:24:46;32.07;;;14.27;;
1446;SDS011;717;51.522;7.266;2022-12-11T04:27:15;32.77;;;15.13;;
1446;SDS011;717;51.522;7.266;2022-12-11T04:30:04;32.27;;;14.23;;
1446;SDS011;717;51.522;7.266;2022-12-11T04:32:38;30.20;;;13.83;;
1446;SDS011;717;51.522;7.266;2022-12-11T04:35:07;29.87;;;14.47;;
1446;SDS011;717;51.522;7.266;2022-12-11T04:37:37;27.63;;;13.97;;
1446;SDS011;717;51.522;7.266;2022-12-11T04:40:07;33.63;;;14.63;;
1446;SDS011;717;51.522;7.266;2022-12-11T04:42:39;31.63;;;13.77;;
1446;SDS011;717;51.522;7.266;2022-12-11T04:45:08;25.47;;;12.13;;
1446;SDS011;717;51.522;7.266;2022-12-11T04:47:41;25.77;;;11.97;;
1446;SDS011;717;51.522;7.266;2022-12-11T04:50:11;23.30;;;11.50;;
1446;SDS011;717;51.522;7.266;2022-12-11T04:52:41;26.23;;;11.73;;
1446;SDS011;717;51.522;7.266;2022-12-11T04:55:10;26.13;;;11.33;;
1446;SDS011;717;51.522;7.266;2022-12-11T04:57:39;23.87;;;11.20;;
1446;SDS011;717;51.522;7.266;2022-12-11T05:00:09;25.37;;;11.03;;
1446;SDS011;717;51.522;7.266;2022-12-11T05:02:41;22.93;;;11.77;;
1446;SDS011;717;51.522;7.266;2022-12-11T05:05:10;23.80;;;11.03;;
1446;SDS011;717;51.522;7.266;2022-12-11T05:07:39;23.43;;;11.13;;
1446;SDS011;717;51.522;7.266;2022-12-11T05:10:08;25.60;;;11.43;;
1446;SDS011;717;51.522;7.266;2022-12-11T05:12:37;24.33;;;11.60;;
1446;SDS011;717;51.522;7.266;2022-12-11T05:15:06;22.73;;;11.30;;
1446;SDS011;717;51.522;7.266;2022-12-11T05:17:35;22.13;;;11.30;;
1446;SDS011;717;51.522;7.266;2022-12-11T05:20:07;21.00;;;10.13;;
1446;SDS011;717;51.522;7.266;2022-12-11T05:22:37;24.97;;;10.53;;
1446;SDS011;717;51.522;7.266;2022-12-11T05:25:06;23.23;;;10.73;;
1446;SDS011;717;51.522;7.266;2022-12-11T05:27:35;22.03;;;10.70;;
1446;SDS011;717;51.522;7.266;2022-12-11T05:30:04;24.23;;;11.40;;
1446;SDS011;717;51.522;7.266;2022-12-11T05:32:34;26.93;;;11.40;;
1446;SDS011;717;51.522;7.266;2022-12-11T05:35:03;24.33;;;10.77;;
1446;SDS011;717;51.522;7.266;2022-12-11T05:37:35;24.10;;;11.80;;
1446;SDS011;717;51.522;7.266;2022-12-11T05:40:04;24.93;;;12.13;;
1446;SDS011;717;51.522;7.266;2022-12-11T05:42:33;22.53;;;10.67;;
1446;SDS011;717;51.522;7.266;2022-12-11T05:45:02;26.13;;;11.90;;
1446;SDS011;717;51.522;7.266;2022-12-11T05:47:31;27.50;;;12.10;;
1446;SDS011;717;51.522;7.266;2022-12-11T05:50:00;24.23;;;11.83;;
1446;SDS011;717;51.522;7.266;2022-12-11T05:52:32;26.13;;;11.80;;
1446;SDS011;717;51.522;7.266;2022-12-11T05:55:01;23.53;;;11.37;;
1446;SDS011;717;51.522;7.266;2022-12-11T05:57:30;22.83;;;11.10;;
1446;SDS011;717;51.522;7.266;2022-12-11T05:59:59;26.87;;;11.90;;
1446;SDS011;717;51.522;7.266;2022-12-11T06:02:27;24.07;;;11.00;;
1446;SDS011;717;51.522;7.266;2022-12-11T06:04:57;24.53;;;11.60;;
1446;SDS011;717;51.522;7.266;2022-12-11T06:07:25;23.67;;;10.60;;
1446;SDS011;717;51.522;7.266;2022-12-11T06:09:57;24.20;;;11.47;;
1446;SDS011;717;51.522;7.266;2022-12-11T06:12:25;22.60;;;11.43;;
1446;SDS011;717;51.522;7.266;2022-12-11T06:14:55;26.23;;;12.03;;
1446;SDS011;717;51.522;7.266;2022-12-11T06:17:23;22.20;;;11.90;;
1446;SDS011;717;51.522;7.266;2022-12-11T06:19:52;26.37;;;11.87;;
1446;SDS011;717;51.522;7.266;2022-12-11T06:22:21;23.37;;;11.93;;
1446;SDS011;717;51.522;7.266;2022-12-11T06:24:49;26.60;;;12.00;;
1446;SDS011;717;51.522;7.266;2022-12-11T06:27:20;25.40;;;12.30;;
1446;SDS011;717;51.522;7.266;2022-12-11T06:29:49;26.27;;;12.33;;
1446;SDS011;717;51.522;7.266;2022-12-11T06:32:18;19.53;;;10.67;;
1446;SDS011;717;51.522;7.266;2022-12-11T06:34:46;23.63;;;11.63;;
1446;SDS011;717;51.522;7.266;2022-12-11T06:37:15;25.57;;;11.90;;
1446;SDS011;717;51.522;7.266;2022-12-11T06:39:44;27.97;;;12.70;;
1446;SDS011;717;51.522;7.266;2022-12-11T06:42:12;24.30;;;11.07;;
1446;SDS011;717;51.522;7.266;2022-12-11T06:44:44;22.83;;;11.33;;
1446;SDS011;717;51.522;7.266;2022-12-11T06:47:12;21.27;;;10.83;;
1446;SDS011;717;51.522;7.266;2022-12-11T06:49:41;20.93;;;11.80;;
1446;SDS011;717;51.522;7.266;2022-12-11T06:52:10;24.90;;;12.30;;
1446;SDS011;717;51.522;7.266;2022-12-11T06:54:38;21.07;;;11.07;;
1446;SDS011;717;51.522;7.266;2022-12-11T06:57:07;23.33;;;11.47;;
1446;SDS011;717;51.522;7.266;2022-12-11T06:59:36;23.43;;;11.70;;
1446;SDS011;717;51.522;7.266;2022-12-11T07:02:08;20.17;;;10.43;;
1446;SDS011;717;51.522;7.266;2022-12-11T07:04:38;23.33;;;11.97;;
1446;SDS011;717;51.522;7.266;2022-12-11T07:07:08;25.93;;;13.87;;
1446;SDS011;717;51.522;7.266;2022-12-11T07:09:38;23.37;;;12.30;;
1446;SDS011;717;51.522;7.266;2022-12-11T07:12:07;23.77;;;11.63;;
1446;SDS011;717;51.522;7.266;2022-12-11T07:14:36;28.10;;;14.20;;
1446;SDS011;717;51.522;7.266;2022-12-11T07:17:07;23.77;;;12.33;;
1446;SDS011;717;51.522;7.266;2022-12-11T07:19:35;26.33;;;12.57;;
1446;SDS011;717;51.522;7.266;2022-12-11T07:22:04;26.80;;;12.70;;
1446;SDS011;717;51.522;7.266;2022-12-11T07:24:33;25.23;;;12.13;;
1446;SDS011;717;51.522;7.266;2022-12-11T07:27:02;20.93;;;11.07;;
1446;SDS011;717;51.522;7.266;2022-12-11T07:29:31;25.33;;;12.30;;
1446;SDS011;717;51.522;7.266;2022-12-11T07:32:00;23.77;;;11.77;;
1446;SDS011;717;51.522;7.266;2022-12-11T07:34:31;26.83;;;12.30;;
1446;SDS011;717;51.522;7.266;2022-12-11T07:37:00;24.23;;;11.63;;
1446;SDS011;717;51.522;7.266;2022-12-11T07:39:29;24.00;;;11.70;;
1446;SDS011;717;51.522;7.266;2022-12-11T07:41:57;20.60;;;10.70;;
1446;SDS011;717;51.522;7.266;2022-12-11T07:44:26;24.77;;;11.57;;
1446;SDS011;717;51.522;7.266;2022-12-11T07:46:55;24.40;;;12.00;;
1446;SDS011;717;51.522;7.266;2022-12-11T07:49:23;23.43;;;12.23;;
1446;SDS011;717;51.522;7.266;2022-12-11T07:51:55;20.67;;;11.63;;
1446;SDS011;717;51.522;7.266;2022-12-11T07:54:23;22.03;;;10.73;;
1446;SDS011;717;51.522;7.266;2022-12-11T07:56:52;22.30;;;11.50;;
1446;SDS011;717;51.522;7.266;2022-12-11T07:59:21;21.07;;;10.83;;
1446;SDS011;717;51.522;7.266;2022-12-11T08:01:50;26.23;;;12.00;;
1446;SDS011;717;51.522;7.266;2022-12-11T08:04:18;19.47;;;10.70;;
1446;SDS011;717;51.522;7.266;2022-12-11T08:06:47;22.37;;;11.77;;
1446;SDS011;717;51.522;7.266;2022-12-11T08:09:18;21.63;;;11.90;;
1446;SDS011;717;51.522;7.266;2022-12-11T08:11:47;20.80;;;11.20;;
1446;SDS011;717;51.522;7.266;2022-12-11T08:14:17;22.00;;;12.03;;
1446;SDS011;717;51.522;7.266;2022-12-11T08:16:46;19.70;;;10.67;;
1446;SDS011;717;51.522;7.266;2022-12-11T08:19:15;25.93;;;12.40;;
1446;SDS011;717;51.522;7.266;2022-12-11T08:21:44;21.33;;;10.57;;
1446;SDS011;717;51.522;7.266;2022-12-11T08:24:13;19.03;;;11.60;;
1446;SDS011;717;51.522;7.266;2022-12-11T08:26:47;19.13;;;10.87;;
1446;SDS011;717;51.522;7.266;2022-12-11T08:29:16;22.57;;;11.90;;
1446;SDS011;717;51.522;7.266;2022-12-11T08:31:44;23.37;;;11.83;;
1446;SDS011;717;51.522;7.266;2022-12-11T08:34:14;20.80;;;10.77;;
1446;SDS011;717;51.522;7.266;2022-12-11T08:36:43;20.70;;;11.17;;
1446;SDS011;717;51.522;7.266;2022-12-11T08:39:11;22.03;;;11.97;;
1446;SDS011;717;51.522;7.266;2022-12-11T08:41:40;21.70;;;11.50;;
1446;SDS011;717;51.522;7.266;2022-12-11T08:44:12;21.97;;;11.53;;
1446;SDS011;717;51.522;7.266;2022-12-11T08:46:40;19.80;;;10.73;;
1446;SDS011;717;51.522;7.266;2022-12-11T08:49:09;20.57;;;11.07;;
1446;SDS011;717;51.522;7.266;2022-12-11T08:51:38;22.47;;;12.13;;
1446;SDS011;717;51.522;7.266;2022-12-11T08:54:07;18.13;;;9.80;;
1446;SDS011;717;51.522;7.266;2022-12-11T08:56:36;18.77;;;10.40;;
1446;SDS011;717;51.522;7.266;2022-12-11T08:59:05;21.40;;;11.07;;
1446;SDS011;717;51.522;7.266;2022-12-11T09:01:36;18.43;;;9.47;;
1446;SDS011;717;51.522;7.266;2022-12-11T09:04:06;15.53;;;9.00;;
1446;SDS011;717;51.522;7.266;2022-12-11T09:06:34;18.33;;;9.80;;
1446;SDS011;717;51.522;7.266;2022-12-11T09:09:03;20.07;;;9.87;;
1446;SDS011;717;51.522;7.266;2022-12-11T09:11:33;19.47;;;9.90;;
1446;SDS011;717;51.522;7.266;2022-12-11T09:14:04;20.93;;;10.27;;
1446;SDS011;717;51.522;7.266;2022-12-11T09:16:33;19.47;;;9.80;;
1446;SDS011;717;51.522;7.266;2022-12-11T09:19:07;17.90;;;10.00;;
1446;SDS011;717;51.522;7.266;2022-12-11T09:21:38;18.40;;;10.63;;
1446;SDS011;717;51.522;7.266;2022-12-11T09:24:08;20.90;;;10.57;;
1446;SDS011;717;51.522;7.266;2022-12-11T09:26:38;19.20;;;10.27;;
1446;SDS011;717;51.522;7.266;2022-12-11T09:29:07;21.47;;;10.37;;
1446;SDS011;717;51.522;7.266;2022-12-11T09:31:35;18.40;;;9.93;;
1446;SDS011;717;51.522;7.266;2022-12-11T09:34:07;18.87;;;10.30;;
1446;SDS011;717;51.522;7.266;2022-12-11T09:36:39;18.97;;;10.37;;
1446;SDS011;717;51.522;7.266;2022-12-11T09:39:09;17.93;;;9.47;;
1446;SDS011;717;51.522;7.266;2022-12-11T09:41:39;20.00;;;10.73;;
1446;SDS011;717;51.522;7.266;2022-12-11T09:44:29;18.47;;;10.43;;
1446;SDS011;717;51.522;7.266;2022-12-11T09:47:01;20.70;;;11.40;;
1446;SDS011;717;51.522;7.266;2022-12-11T09:49:34;21.30;;;11.37;;
1446;SDS011;717;51.522;7.266;2022-12-11T09:52:09;21.63;;;11.37;;
1446;SDS011;717;51.522;7.266;2022-12-11T09:54:42;18.93;;;10.13;;
1446;SDS011;717;51.522;7.266;2022-12-11T09:57:22;16.30;;;9.40;;
1446;SDS011;717;51.522;7.266;2022-12-11T10:00:02;18.43;;;10.03;;
1446;SDS011;717;51.522;7.266;2022-12-11T10:02:43;17.97;;;9.80;;
1446;SDS011;717;51.522;7.266;2022-12-11T10:05:28;21.57;;;10.03;;
1446;SDS011;717;51.522;7.266;2022-12-11T10:08:05;22.03;;;11.87;;
1446;SDS011;717;51.522;7.266;2022-12-11T10:10:42;19.40;;;10.30;;
1446;SDS011;717;51.522;7.266;2022-12-11T10:13:16;18.47;;;9.87;;
1446;SDS011;717;51.522;7.266;2022-12-11T10:15:56;21.70;;;11.23;;
1446;SDS011;717;51.522;7.266;2022-12-11T10:18:27;22.10;;;11.23;;
1446;SDS011;717;51.522;7.266;2022-12-11T10:21:01;20.53;;;11.73;;
1446;SDS011;717;51.522;7.266;2022-12-11T10:23:31;21.93;;;11.87;;
1446;SDS011;717;51.522;7.266;2022-12-11T10:26:06;24.37;;;12.63;;
1446;SDS011;717;51.522;7.266;2022-12-11T10:28:38;21.90;;;10.87;;
1446;SDS011;717;51.522;7.266;2022-12-11T10:31:09;19.43;;;10.13;;
1446;SDS011;717;51.522;7.266;2022-12-11T10:33:48;22.70;;;11.47;;
1446;SDS011;717;51.522;7.266;2022-12-11T10:36:28;20.60;;;11.40;;
1446;SDS011;717;51.522;7.266;2022-12-11T10:38:58;22.03;;;12.10;;
1446;SDS011;717;51.522;7.266;2022-12-11T10:41:32;19.57;;;11.03;;
1446;SDS011;717;51.522;7.266;2022-12-11T10:44:13;22.47;;;12.23;;
1446;SDS011;717;51.522;7.266;2022-12-11T10:46:43;18.07;;;10.77;;
1446;SDS011;717;51.522;7.266;2022-12-11T10:49:20;21.43;;;12.00;;
1446;SDS011;717;51.522;7.266;2022-12-11T10:51:57;23.00;;;12.77;;
1446;SDS011;717;51.522;7.266;2022-12-11T10:54:30;24.83;;;12.93;;
1446;SDS011;717;51.522;7.266;2022-12-11T10:57:03;24.13;;;13.10;;
1446;SDS011;717;51.522;7.266;2022-12-11T10:59:35;24.73;;;13.03;;
1446;SDS011;717;51.522;7.266;2022-12-11T11:02:06;34.47;;;16.43;;
1446;SDS011;717;51.522;7.266;2022-12-11T11:04:47;30.47;;;16.67;;
1446;SDS011;717;51.522;7.266;2022-12-11T11:07:22;25.33;;;13.47;;
1446;SDS011;717;51.522;7.266;2022-12-11T11:10:02;20.20;;;12.00;;
1446;SDS011;717;51.522;7.266;2022-12-11T11:12:36;22.60;;;12.07;;
1446;SDS011;717;51.522;7.266;2022-12-11T11:15:09;22.97;;;12.77;;
1446;SDS011;717;51.522;7.266;2022-12-11T11:17:41;23.57;;;11.57;;
1446;SDS011;717;51.522;7.266;2022-12-11T11:20:13;24.10;;;12.40;;
1446;SDS011;717;51.522;7.266;2022-12-11T11:22:53;23.20;;;12.73;;
1446;SDS011;717;51.522;7.266;2022-12-11T11:25:25;23.43;;;11.37;;
1446;SDS011;717;51.522;7.266;2022-12-11T11:27:55;25.33;;;12.47;;
1446;SDS011;717;51.522;7.266;2022-12-11T11:30:27;21.93;;;12.60;;
1446;SDS011;717;51.522;7.266;2022-12-11T11:33:00;21.67;;;12.97;;
1446;SDS011;717;51.522;7.266;2022-12-11T11:35:31;20.80;;;11.93;;
1446;SDS011;717;51.522;7.266;2022-12-11T11:38:04;21.30;;;12.20;;
1446;SDS011;717;51.522;7.266;2022-12-11T11:40:44;18.33;;;10.63;;
1446;SDS011;717;51.522;7.266;2022-12-11T11:43:18;19.67;;;11.60;;
1446;SDS011;717;51.522;7.266;2022-12-11T11:46:00;22.93;;;11.30;;
1446;SDS011;717;51.522;7.266;2022-12-11T11:48:35;21.13;;;12.07;;
1446;SDS011;717;51.522;7.266;2022-12-11T11:51:12;21.53;;;11.53;;
1446;SDS011;717;51.522;7.266;2022-12-11T11:53:47;22.20;;;11.57;;
1446;SDS011;717;51.522;7.266;2022-12-11T11:56:19;24.30;;;12.03;;
1446;SDS011;717;51.522;7.266;2022-12-11T11:58:52;21.97;;;12.30;;
1446;SDS011;717;51.522;7.266;2022-12-11T12:01:28;19.60;;;10.67;;
1446;SDS011;717;51.522;7.266;2022-12-11T12:03:57;21.17;;;11.37;;
1446;SDS011;717;51.522;7.266;2022-12-11T12:06:43;22.70;;;10.97;;
1446;SDS011;717;51.522;7.266;2022-12-11T12:09:48;20.83;;;11.20;;
1446;SDS011;717;51.522;7.266;2022-12-11T12:12:28;23.23;;;11.60;;
1446;SDS011;717;51.522;7.266;2022-12-11T12:15:14;22.00;;;10.60;;
1446;SDS011;717;51.522;7.266;2022-12-11T12:17:52;22.23;;;11.17;;
1446;SDS011;717;51.522;7.266;2022-12-11T12:20:24;22.57;;;11.57;;
1446;SDS011;717;51.522;7.266;2022-12-11T12:23:01;16.53;;;10.37;;
1446;SDS011;717;51.522;7.266;2022-12-11T12:25:43;21.50;;;10.90;;
1446;SDS011;717;51.522;7.266;2022-12-11T12:28:20;23.03;;;12.23;;
1446;SDS011;717;51.522;7.266;2022-12-11T12:30:58;20.30;;;11.20;;
1446;SDS011;717;51.522;7.266;2022-12-11T12:33:39;17.10;;;10.43;;
1446;SDS011;717;51.522;7.266;2022-12-11T12:36:17;18.27;;;9.97;;
1446;SDS011;717;51.522;7.266;2022-12-11T12:38:52;18.77;;;9.87;;
1446;SDS011;717;51.522;7.266;2022-12-11T12:41:27;18.80;;;10.13;;
1446;SDS011;717;51.522;7.266;2022-12-11T12:44:13;18.17;;;9.37;;
1446;SDS011;717;51.522;7.266;2022-12-11T12:49:33;16.33;;;8.93;;
1446;SDS011;717;51.522;7.266;2022-12-11T12:52:05;18.90;;;9.03;;
1446;SDS011;717;51.522;7.266;2022-12-11T12:54:40;16.20;;;9.60;;
1446;SDS011;717;51.522;7.266;2022-12-11T12:57:34;18.00;;;9.13;;
1446;SDS011;717;51.522;7.266;2022-12-11T13:00:05;16.87;;;9.97;;
1446;SDS011;717;51.522;7.266;2022-12-11T13:02:36;16.90;;;10.23;;
1446;SDS011;717;51.522;7.266;2022-12-11T13:05:18;21.27;;;10.63;;
1446;SDS011;717;51.522;7.266;2022-12-11T13:07:48;18.40;;;10.43;;
1446;SDS011;717;51.522;7.266;2022-12-11T13:10:24;19.00;;;10.43;;
1446;SDS011;717;51.522;7.266;2022-12-11T13:12:58;20.73;;;11.27;;
1446;SDS011;717;51.522;7.266;2022-12-11T13:15:35;21.97;;;10.73;;
1446;SDS011;717;51.522;7.266;2022-12-11T13:20:59;18.83;;;9.70;;
1446;SDS011;717;51.522;7.266;2022-12-11T13:23:29;19.83;;;10.97;;
1446;SDS011;717;51.522;7.266;2022-12-11T13:26:00;20.53;;;11.20;;
1446;SDS011;717;51.522;7.266;2022-12-11T13:28:47;19.47;;;10.17;;
1446;SDS011;717;51.522;7.266;2022-12-11T13:34:14;19.00;;;11.30;;
1446;SDS011;717;51.522;7.266;2022-12-11T13:36:45;22.90;;;12.10;;
1446;SDS011;717;51.522;7.266;2022-12-11T13:39:17;20.37;;;11.37;;
1446;SDS011;717;51.522;7.266;2022-12-11T13:41:50;20.50;;;11.40;;
1446;SDS011;717;51.522;7.266;2022-12-11T13:44:25;18.67;;;11.00;;
1446;SDS011;717;51.522;7.266;2022-12-11T13:46:57;19.63;;;10.53;;
1446;SDS011;717;51.522;7.266;2022-12-11T13:49:33;18.80;;;10.73;;
1446;SDS011;717;51.522;7.266;2022-12-11T13:52:04;20.33;;;11.00;;
1446;SDS011;717;51.522;7.266;2022-12-11T13:54:34;21.73;;;11.47;;
1446;SDS011;717;51.522;7.266;2022-12-11T13:57:12;18.97;;;10.67;;
1446;SDS011;717;51.522;7.266;2022-12-11T13:59:48;19.40;;;10.90;;
1446;SDS011;717;51.522;7.266;2022-12-11T14:02:21;19.37;;;10.40;;
1446;SDS011;717;51.522;7.266;2022-12-11T14:04:53;18.50;;;10.70;;
1446;SDS011;717;51.522;7.266;2022-12-11T14:07:26;18.03;;;9.77;;
1446;SDS011;717;51.522;7.266;2022-12-11T14:09:58;19.83;;;10.80;;
1446;SDS011;717;51.522;7.266;2022-12-11T14:12:29;21.57;;;10.90;;
1446;SDS011;717;51.522;7.266;2022-12-11T14:15:02;20.03;;;11.33;;
1446;SDS011;717;51.522;7.266;2022-12-11T14:17:33;20.47;;;10.77;;
1446;SDS011;717;51.522;7.266;2022-12-11T14:20:03;21.17;;;11.17;;
1446;SDS011;717;51.522;7.266;2022-12-11T14:22:34;20.43;;;11.50;;
1446;SDS011;717;51.522;7.266;2022-12-11T14:25:16;18.07;;;11.37;;
1446;SDS011;717;51.522;7.266;2022-12-11T14:27:49;18.23;;;10.53;;
1446;SDS011;717;51.522;7.266;2022-12-11T14:30:23;22.83;;;11.67;;
1446;SDS011;717;51.522;7.266;2022-12-11T14:32:53;17.67;;;11.00;;
1446;SDS011;717;51.522;7.266;2022-12-11T14:35:25;19.53;;;10.40;;
1446;SDS011;717;51.522;7.266;2022-12-11T14:37:56;21.07;;;12.63;;
1446;SDS011;717;51.522;7.266;2022-12-11T14:40:29;20.93;;;11.90;;
1446;SDS011;717;51.522;7.266;2022-12-11T14:43:03;21.03;;;11.73;;
1446;SDS011;717;51.522;7.266;2022-12-11T14:45:41;22.30;;;11.77;;
1446;SDS011;717;51.522;7.266;2022-12-11T14:48:15;19.33;;;11.47;;
1446;SDS011;717;51.522;7.266;2022-12-11T14:50:49;19.33;;;11.63;;
1446;SDS011;717;51.522;7.266;2022-12-11T14:53:22;18.20;;;11.33;;
1446;SDS011;717;51.522;7.266;2022-12-11T14:55:52;20.90;;;11.77;;
1446;SDS011;717;51.522;7.266;2022-12-11T14:58:25;20.30;;;11.90;;
1446;SDS011;717;51.522;7.266;2022-12-11T15:00:58;20.10;;;10.73;;
1446;SDS011;717;51.522;7.266;2022-12-11T15:03:31;22.30;;;12.20;;
1446;SDS011;717;51.522;7.266;2022-12-11T15:06:02;19.67;;;10.37;;
1446;SDS011;717;51.522;7.266;2022-12-11T15:08:50;18.43;;;10.73;;
1446;SDS011;717;51.522;7.266;2022-12-11T15:11:19;22.40;;;11.93;;
1446;SDS011;717;51.522;7.266;2022-12-11T15:13:50;20.17;;;11.43;;
1446;SDS011;717;51.522;7.266;2022-12-11T15:16:23;24.90;;;12.03;;
1446;SDS011;717;51.522;7.266;2022-12-11T15:18:54;21.63;;;11.93;;
1446;SDS011;717;51.522;7.266;2022-12-11T15:21:27;20.30;;;11.37;;
1446;SDS011;717;51.522;7.266;2022-12-11T15:23:57;18.87;;;10.93;;
1446;SDS011;717;51.522;7.266;2022-12-11T15:26:32;21.37;;;11.80;;
1446;SDS011;717;51.522;7.266;2022-12-11T15:29:03;19.50;;;11.43;;
1446;SDS011;717;51.522;7.266;2022-12-11T15:31:36;22.57;;;11.67;;
1446;SDS011;717;51.522;7.266;2022-12-11T15:34:19;22.50;;;12.23;;
1446;SDS011;717;51.522;7.266;2022-12-11T15:36:49;21.03;;;11.53;;
1446;SDS011;717;51.522;7.266;2022-12-11T15:39:18;24.07;;;12.67;;
1446;SDS011;717;51.522;7.266;2022-12-11T15:41:46;21.30;;;11.87;;
1446;SDS011;717;51.522;7.266;2022-12-11T15:44:16;23.13;;;12.10;;